Latest Weather Observations for Cabramurra

IDN60801

Issued at 5:05 pm EDT Friday 31 October 2014 (issued every 30 minutes, with the page automatically refreshed every 10 minutes)

About weather observations | Map of weather stations | Latest weather observations for NSW | Other Formats
Station Details ID: 072161 Name: CABRAMURRA SMHEA AWS Lat: -35.94 Lon: 148.38 Height: 1482.4 m
Data from the previous 72 hours. | See also: Recent months at Cabramurra
Date/Time
EDT
Temp
°C
App
Temp
°C
Dew
Point
Rel
Hum
%
Delta-T
°C
Wind Press
QNH
hPa
Press
MSL
hPa
Rain
since 9 am
mm
Dir
 
Spd
km/h
Gust
km/h
Spd
kts
Gust
kts
31/05:00pm 21.2 14.7 2.5 29 9.5 WNW 26 44 14 24 - - 0.0
31/04:30pm 19.6 13.6 3.3 34 8.3 NNW 24 39 13 21 - - 0.0
31/04:00pm 19.0 13.7 3.2 35 8.0 NNW 20 33 11 18 - - 0.0
31/03:30pm 19.6 13.3 1.6 30 8.9 WNW 24 39 13 21 - - 0.0
31/03:00pm 19.8 11.9 1.3 29 9.1 WNW 32 52 17 28 - - 0.0
31/02:35pm 20.3 10.6 0.7 27 9.5 WNW 41 63 22 34 - - 0.0
31/02:30pm 20.6 11.4 1.5 28 9.5 WNW 39 56 21 30 - - 0.0
31/02:00pm 19.6 10.1 -0.4 26 9.5 WNW 39 61 21 33 - - 0.0
31/01:36pm 19.8 12.2 0.8 28 9.2 WNW 30 48 16 26 - - 0.0
31/01:30pm 19.3 13.0 1.3 30 8.8 WNW 24 39 13 21 - - 0.0
31/01:00pm 19.8 11.4 1.3 29 9.1 WNW 35 56 19 30 - - 0.0
31/12:44pm 19.6 11.7 1.1 29 9.0 WNW 32 50 17 27 - - 0.0
31/12:30pm 19.0 11.7 2.4 33 8.3 NW 30 44 16 24 - - 0.0
31/12:12pm 18.8 12.0 3.0 35 8.0 NW 28 48 15 26 - - 0.0
31/12:00pm 19.1 14.4 5.2 40 7.3 NW 19 28 10 15 - - 0.0
31/11:30am 17.6 11.2 3.1 38 7.3 N 26 37 14 20 - - 0.0
31/11:00am 16.7 10.6 2.7 39 6.9 NNW 24 37 13 20 - - 0.0
31/10:30am 16.3 10.2 2.7 40 6.7 N 24 33 13 18 - - 0.0
31/10:00am 16.2 11.0 2.2 39 6.8 NNW 19 26 10 14 - - 0.0
31/09:30am 15.7 10.9 2.8 42 6.3 NW 17 22 9 12 - - 0.0
31/09:00am 14.8 9.4 2.4 43 6.0 NW 20 28 11 15 - - 0.0
31/08:30am 14.1 8.4 0.7 40 6.2 WNW 20 28 11 15 - - 0.0
31/08:00am 13.6 7.9 0.3 40 6.1 WNW 20 26 11 14 - - 0.0
31/07:30am 13.2 7.4 -0.1 40 6.0 WNW 20 26 11 14 - - 0.0
31/07:00am 13.0 7.7 -0.3 40 6.0 WNW 17 20 9 11 - - 0.0
31/06:30am 12.8 7.9 -0.4 40 5.9 WNW 15 22 8 12 - - 0.0
31/06:00am 12.9 7.6 -0.7 39 6.1 WNW 17 24 9 13 - - 0.0
31/05:30am 12.6 7.3 -0.6 40 5.9 NW 17 20 9 11 - - 0.0
31/05:00am 12.6 7.6 -1.0 39 6.0 WNW 15 19 8 10 - - 0.0
31/04:30am 13.0 7.6 -1.0 38 6.2 WNW 17 22 9 12 - - 0.0
31/04:00am 13.1 7.3 -1.2 37 6.3 WNW 19 24 10 13 - - 0.0
31/03:30am 12.9 6.9 -1.4 37 6.3 WNW 20 24 11 13 - - 0.0
31/03:00am 12.8 6.9 -1.1 38 6.1 WNW 20 26 11 14 - - 0.0
31/02:30am 12.3 7.0 -0.9 40 5.8 NW 17 19 9 10 - - 0.0
31/02:00am 12.0 7.3 0.8 46 5.1 NNW 15 17 8 9 - - 0.0
31/01:30am 12.1 7.9 1.4 48 5.0 NNW 13 15 7 8 - - 0.0
31/01:00am 12.0 7.8 1.6 49 4.8 NW 13 19 7 10 - - 0.0
31/12:30am 12.0 7.7 1.3 48 4.9 NW 13 15 7 8 - - 0.0
31/12:00am 12.5 7.8 1.2 46 5.2 WNW 15 19 8 10 - - 0.0
 
Date/Time
EDT
Temp
°C
App
Temp
°C
Dew
Point
Rel
Hum
%
Delta-T
°C
Wind Press
QNH
hPa
Press
MSL
hPa
Rain
since 9 am
mm
Dir
 
Spd
km/h
Gust
km/h
Spd
kts
Gust
kts
30/11:30pm 12.6 7.2 1.0 45 5.4 WNW 19 26 10 14 - - 0.0
30/11:00pm 13.3 7.3 1.0 43 5.7 WNW 22 30 12 16 - - 0.0
30/10:30pm 12.9 7.3 1.3 45 5.4 W 20 28 11 15 - - 0.0
30/10:00pm 13.1 7.6 1.8 46 5.3 W 20 30 11 16 - - 0.0
30/09:30pm 13.3 8.0 1.6 45 5.5 W 19 26 10 14 - - 0.0
30/09:00pm 13.1 8.2 1.8 46 5.3 W 17 26 9 14 - - 0.0
30/08:30pm 13.6 8.1 1.6 44 5.7 W 20 28 11 15 - - 0.0
30/08:00pm 13.9 8.3 1.5 43 5.8 WNW 20 30 11 16 - - 0.0
30/07:30pm 14.3 8.6 0.5 39 6.4 WNW 20 30 11 16 - - 0.0
30/07:00pm 15.4 8.6 0.8 37 6.9 WNW 26 37 14 20 - - 0.0
30/06:30pm 15.9 9.1 0.5 35 7.2 W 26 37 14 20 - - 0.0
30/06:00pm 16.3 9.2 1.6 37 7.1 WNW 28 41 15 22 - - 0.0
30/05:30pm 16.4 9.4 2.1 38 7.0 W 28 44 15 24 - - 0.0
30/05:00pm 16.2 8.2 1.9 38 6.9 W 33 46 18 25 - - 0.0
30/04:34pm 16.5 9.7 2.9 40 6.7 W 28 46 15 25 - - 0.0
30/04:30pm 16.3 9.9 3.0 41 6.6 W 26 46 14 25 - - 0.0
30/04:03pm 16.5 9.4 3.6 42 6.5 W 30 48 16 26 - - 0.0
30/04:00pm 16.3 8.7 3.0 41 6.6 W 32 48 17 26 - - 0.0
30/03:30pm 16.3 10.8 4.0 44 6.2 W 22 35 12 19 - - 0.0
30/03:00pm 15.7 10.2 3.8 45 6.0 WNW 22 33 12 18 - - 0.0
30/02:30pm 15.6 9.8 4.6 48 5.6 W 24 35 13 19 - - 0.0
30/02:00pm 15.3 10.4 4.9 50 5.3 WNW 20 35 11 19 - - 0.0
30/01:30pm 14.0 6.5 3.5 49 5.2 WNW 32 41 17 22 - - 0.0
30/01:00pm 13.8 7.9 4.1 52 4.8 W 24 33 13 18 - - 0.0
30/12:30pm 13.2 7.0 4.1 54 4.5 W 26 43 14 23 - - 0.0
30/12:00pm 12.8 7.0 4.3 56 4.2 WNW 24 39 13 21 - - 0.0
30/11:30am 12.4 5.7 3.6 55 4.3 W 28 46 15 25 - - 0.0
30/11:29am 12.3 5.5 3.0 53 4.5 W 28 46 15 25 - - 0.0
30/11:00am 12.5 8.2 3.5 54 4.4 WNW 15 41 8 22 - - 0.0
30/10:30am 11.3 4.0 2.6 55 4.1 W 30 50 16 27 - - 0.0
30/10:01am 10.9 4.2 3.7 61 3.5 W 28 46 15 25 - - 0.0
30/10:00am 10.9 4.6 3.7 61 3.5 W 26 43 14 23 - - 0.0
30/09:30am 9.9 3.5 3.0 62 3.3 W 26 39 14 21 - - 0.0
30/09:00am 9.6 3.1 2.5 61 3.3 W 26 37 14 20 - - 0.0
30/08:30am 9.4 4.6 2.7 63 3.1 W 17 24 9 13 - - 0.0
30/08:00am 8.6 3.2 2.4 65 2.9 W 20 32 11 17 - - 0.0
30/07:30am 7.8 3.0 2.7 70 2.3 W 17 26 9 14 - - 0.0
30/07:00am 7.4 2.7 2.9 73 2.1 W 17 20 9 11 - - 0.0
30/06:30am 7.3 2.5 2.8 73 2.1 W 17 24 9 13 - - 0.0
30/06:00am 7.4 2.3 2.9 73 2.1 W 19 24 10 13 - - 0.0
30/05:30am 7.4 2.7 2.9 73 2.1 WSW 17 26 9 14 - - 0.0
30/05:00am 7.4 2.3 3.1 74 2.0 W 19 26 10 14 - - 0.0
30/04:30am 7.0 1.9 2.9 75 1.9 W 19 24 10 13 - - 0.0
30/04:00am 7.0 2.6 2.9 75 1.9 W 15 20 8 11 - - 0.0
30/03:30am 7.1 2.8 3.0 75 1.9 WNW 15 19 8 10 - - 0.0
30/03:00am 7.0 3.0 2.7 74 2.0 WNW 13 17 7 9 - - 0.0
30/02:30am 7.1 3.1 2.8 74 2.0 NW 13 17 7 9 - - 0.0
30/02:00am 6.9 3.2 2.6 74 2.0 WNW 11 13 6 7 - - 0.0
30/01:30am 7.0 3.7 2.5 73 2.0 NW 9 13 5 7 - - 0.0
30/01:00am 7.2 3.6 2.7 73 2.1 WNW 11 15 6 8 - - 0.0
30/12:30am 7.4 3.8 2.9 73 2.1 WNW 11 17 6 9 - - 0.0
30/12:00am 7.9 3.5 2.8 70 2.4 W 15 20 8 11 - - 0.0
 
Date/Time
EDT
Temp
°C
App
Temp
°C
Dew
Point
Rel
Hum
%
Delta-T
°C
Wind Press
QNH
hPa
Press
MSL
hPa
Rain
since 9 am
mm
Dir
 
Spd
km/h
Gust
km/h
Spd
kts
Gust
kts
29/11:30pm 8.3 3.2 3.0 69 2.5 WNW 19 26 10 14 - - 0.0
29/11:00pm 8.4 3.7 3.1 69 2.5 W 17 22 9 12 - - 0.0
29/10:30pm 8.4 4.1 3.1 69 2.5 W 15 22 8 12 - - 0.0
29/10:00pm 8.7 4.3 2.9 67 2.7 W 15 24 8 13 - - 0.0
29/09:30pm 8.8 4.5 3.0 67 2.7 W 15 20 8 11 - - 0.0
29/09:00pm 9.3 4.2 3.3 66 2.8 W 19 24 10 13 - - 0.0
29/08:30pm 9.5 5.3 3.7 67 2.8 W 15 26 8 14 - - 0.0
29/08:00pm 10.0 5.5 4.0 66 2.9 WNW 17 26 9 14 - - 0.0
29/07:30pm 10.7 6.1 3.7 62 3.4 WNW 17 26 9 14 - - 0.0
29/07:00pm 12.0 7.1 4.0 58 3.9 W 19 30 10 16 - - 0.0
29/06:30pm 12.9 8.5 4.6 57 4.1 W 17 26 9 14 - - 0.0
29/06:00pm 13.5 8.6 5.2 57 4.2 W 20 28 11 15 - - 0.0
29/05:30pm 13.7 9.0 5.1 56 4.4 W 19 33 10 18 - - 0.0
29/05:00pm 14.3 10.1 5.7 56 4.4 W 17 32 9 17 - - 0.0
29/04:30pm 13.9 9.1 4.8 54 4.6 WNW 19 37 10 20 - - 0.0
29/04:00pm 14.8 10.6 5.9 55 4.6 W 17 28 9 15 - - 0.0
29/03:30pm 14.1 9.2 4.9 54 4.7 WNW 20 28 11 15 - - 0.0
29/03:00pm 14.7 10.9 6.0 56 4.5 W 15 22 8 12 - - 0.0
29/02:30pm 13.1 8.0 4.0 54 4.5 WNW 20 28 11 15 - - 0.0
29/02:00pm 13.2 8.4 4.9 57 4.2 WNW 19 28 10 15 - - 0.0
29/01:30pm 12.1 7.6 4.3 59 3.8 WNW 17 28 9 15 - - 0.0
29/01:00pm 11.7 6.2 4.0 59 3.8 WNW 22 30 12 16 - - 0.0
29/12:30pm 12.3 7.8 4.0 57 4.1 NW 17 28 9 15 - - 0.0
29/12:00pm 11.5 6.5 1.2 49 4.7 WNW 17 20 9 11 - - 0.0
29/11:30am 10.5 6.4 2.4 57 3.8 NW 13 20 7 11 - - 0.0
29/11:00am 10.3 6.7 3.1 61 3.4 W 11 17 6 9 - - 0.0
29/10:30am 8.9 4.6 3.1 67 2.7 W 15 26 8 14 - - 0.0
29/10:00am 8.1 4.1 3.0 70 2.4 WNW 13 17 7 9 - - 0.0
29/09:30am 7.5 3.5 3.0 73 2.1 WNW 13 22 7 12 - - 0.0
29/09:00am 6.2 2.2 2.8 79 1.5 WNW 13 19 7 10 - - 0.0
29/08:30am 5.4 1.7 4.4 93 0.5 NW 13 17 7 9 - - 0.0
29/08:00am 5.0 1.7 4.7 98 0.1 NW 11 15 6 8 - - 0.0
29/07:30am 4.1 0.7 4.0 99 0.0 NW 11 17 6 9 - - 0.0
29/07:00am 4.0 0.6 3.9 99 0.0 WNW 11 17 6 9 - - 0.0
29/06:30am 3.8 1.3 3.7 99 0.0 NW 6 9 3 5 - - 0.0
29/06:00am 3.7 0.6 3.6 99 0.0 W 9 15 5 8 - - 0.0
29/05:30am 4.0 1.0 3.9 99 0.0 WNW 9 13 5 7 - - 0.0
29/05:00am 3.9 0.5 3.8 99 0.0 WSW 11 20 6 11 - - 0.0
29/04:30am 4.1 -0.1 4.0 99 0.0 WSW 15 24 8 13 - - 0.0
29/04:00am 4.2 -0.7 4.1 99 0.0 WSW 19 33 10 18 - - 0.0
29/03:30am 4.5 -1.7 4.2 98 0.1 WSW 26 37 14 20 - - 0.0
29/03:00am 4.7 -1.9 4.0 95 0.3 WSW 28 41 15 22 - - 0.0
29/02:30am 4.6 -1.2 4.5 99 0.0 WSW 24 33 13 18 - - 0.0
29/02:00am 4.6 -0.8 4.5 99 0.0 WSW 22 32 12 17 - - 0.0
29/01:30am 4.9 -1.2 4.8 99 0.0 W 26 46 14 25 - - 0.0
29/01:00am 4.9 -2.0 4.8 99 0.0 WSW 30 43 16 23 - - 0.0
29/12:30am 5.0 -2.2 4.9 99 0.0 WSW 32 44 17 24 - - 0.0
29/12:00am 5.2 -2.0 5.1 99 0.0 W 32 46 17 25 - - 0.0
 
Date/Time
EDT
Temp
°C
App
Temp
°C
Dew
Point
Rel
Hum
%
Delta-T
°C
Wind Press
QNH
hPa
Press
MSL
hPa
Rain
since 9 am
mm
Dir
 
Spd
km/h
Gust
km/h
Spd
kts
Gust
kts
28/11:30pm 5.3 -1.9 5.2 99 0.0 W 32 44 17 24 - - 0.0
28/11:00pm 5.4 -1.4 5.3 99 0.0 W 30 39 16 21 - - 0.0
28/10:30pm 5.3 -1.9 5.2 99 0.0 WSW 32 46 17 25 - - 0.0
28/10:00pm 5.2 -1.2 5.1 99 0.0 W 28 44 15 24 - - 0.0
28/09:31pm 5.2 -2.0 5.1 99 0.0 W 32 50 17 27 - - 0.0
28/09:30pm 5.2 -2.2 5.1 99 0.0 W 33 50 18 27 - - 0.0
28/09:00pm 5.2 -2.0 4.9 98 0.1 W 32 50 17 27 - - 0.0
28/08:34pm 5.2 -2.0 4.9 98 0.1 W 32 50 17 27 - - 0.0
28/08:30pm 5.3 -1.9 4.9 97 0.2 W 32 48 17 26 - - 0.0
28/08:00pm 5.2 -2.0 4.8 97 0.2 W 32 43 17 23 - - 0.0
28/07:39pm 5.1 -2.2 4.7 97 0.2 W 32 50 17 27 - - 0.0
28/07:30pm 5.2 -1.7 4.8 97 0.2 W 30 44 16 24 - - 0.0
28/07:08pm 5.3 -2.6 4.6 95 0.3 W 35 54 19 29 - - 0.0
28/07:00pm 5.2 -2.7 4.6 96 0.3 W 35 50 19 27 - - 0.0
28/06:30pm 5.5 -2.0 4.6 94 0.4 W 33 54 18 29 - - 0.0
28/06:04pm 5.6 -1.8 4.2 91 0.7 W 32 52 17 28 - - 0.0
28/06:00pm 5.7 -1.8 4.5 92 0.6 W 33 50 18 27 - - 0.0
28/05:30pm 5.7 -2.2 4.2 90 0.7 W 35 56 19 30 - - 0.0
28/05:08pm 5.8 -2.5 4.0 88 0.8 W 37 57 20 31 - - 0.0

Other Formats:

Comma delimited format used in spreadsheet applications
http://www.bom.gov.au/fwo/IDN60801/IDN60801.95916.axf

JavaScript Object Notation format (JSON) in row-major order
http://www.bom.gov.au/fwo/IDN60801/IDN60801.95916.json